createdAt,value
2019-05-11T00:02:44.902Z,8.60
2019-05-11T00:05:30.174Z,8.60
2019-05-11T00:08:15.600Z,8.60
2019-05-11T00:11:00.664Z,8.60
2019-05-11T00:13:45.997Z,8.60
2019-05-11T00:16:31.475Z,8.70
2019-05-11T00:19:16.498Z,8.70
2019-05-11T00:22:01.563Z,8.70
2019-05-11T00:24:47.485Z,8.70
2019-05-11T00:27:32.733Z,8.70
2019-05-11T00:30:17.565Z,8.80
2019-05-11T00:33:02.306Z,8.70
2019-05-11T00:35:47.513Z,8.70
2019-05-11T00:38:32.711Z,8.60
2019-05-11T00:41:17.929Z,8.60
2019-05-11T00:44:02.987Z,8.50
2019-05-11T00:46:48.006Z,8.50
2019-05-11T00:49:33.677Z,8.40
2019-05-11T00:52:18.737Z,8.40
2019-05-11T00:55:04.115Z,8.40
2019-05-11T00:57:49.473Z,8.40
2019-05-11T01:00:34.461Z,8.40
2019-05-11T01:03:19.773Z,8.40
2019-05-11T01:06:05.097Z,8.30
2019-05-11T01:08:50.355Z,8.40
2019-05-11T01:11:35.288Z,8.40
2019-05-11T01:14:20.589Z,8.40
2019-05-11T01:17:06.066Z,8.30
2019-05-11T01:19:51.535Z,8.20
2019-05-11T01:22:36.498Z,8.20
2019-05-11T01:25:21.482Z,8.20
2019-05-11T01:28:06.189Z,8.10
2019-05-11T01:30:51.198Z,8.00
2019-05-11T01:33:36.318Z,7.90
2019-05-11T01:36:21.482Z,8.00
2019-05-11T01:39:06.378Z,8.00
2019-05-11T01:41:52.150Z,8.00
2019-05-11T01:44:37.199Z,8.00
2019-05-11T01:47:22.006Z,8.00
2019-05-11T01:50:07.137Z,7.90
2019-05-11T01:52:52.825Z,7.90
2019-05-11T01:55:38.190Z,7.90
2019-05-11T01:58:23.196Z,8.00
2019-05-11T02:01:08.850Z,8.00
2019-05-11T02:03:54.203Z,8.00
2019-05-11T02:06:39.049Z,8.10
2019-05-11T02:09:23.825Z,8.20
2019-05-11T02:12:08.606Z,8.20
2019-05-11T02:14:53.887Z,8.20
2019-05-11T02:17:38.920Z,8.20
2019-05-11T02:20:24.381Z,8.30
2019-05-11T02:23:09.355Z,8.30
2019-05-11T02:25:54.833Z,8.30
2019-05-11T02:28:40.395Z,8.30
2019-05-11T02:31:25.470Z,8.30
2019-05-11T02:34:10.634Z,8.30
2019-05-11T02:36:56.624Z,8.30
2019-05-11T02:39:42.175Z,8.30
2019-05-11T02:42:27.559Z,8.40
2019-05-11T02:45:12.730Z,8.40
2019-05-11T02:47:57.995Z,8.40
2019-05-11T02:50:43.467Z,8.40
2019-05-11T02:53:28.522Z,8.30
2019-05-11T02:56:13.881Z,8.40
2019-05-11T02:58:58.993Z,8.40
2019-05-11T03:01:44.133Z,8.40
2019-05-11T03:04:29.610Z,8.40
2019-05-11T03:07:15.327Z,8.40
2019-05-11T03:10:00.636Z,8.40
2019-05-11T03:12:45.889Z,8.50
2019-05-11T03:15:30.997Z,8.40
2019-05-11T03:18:16.278Z,8.40
2019-05-11T03:21:01.617Z,8.40
2019-05-11T03:23:46.471Z,8.40
2019-05-11T03:26:31.864Z,8.30
2019-05-11T03:29:17.311Z,8.30
2019-05-11T03:32:02.541Z,8.30
2019-05-11T03:34:48.179Z,8.20
2019-05-11T03:37:33.649Z,8.20
2019-05-11T03:40:18.638Z,8.10
2019-05-11T03:43:03.551Z,8.00
2019-05-11T03:45:49.238Z,8.00
2019-05-11T03:48:34.598Z,7.90
2019-05-11T03:51:19.707Z,8.00
2019-05-11T03:54:04.953Z,8.00
2019-05-11T03:56:50.730Z,8.10
2019-05-11T03:59:35.918Z,8.10
2019-05-11T04:02:21.288Z,8.10
2019-05-11T04:05:07.063Z,8.20
2019-05-11T04:07:52.185Z,8.30
2019-05-11T04:10:37.805Z,8.30
2019-05-11T04:13:23.889Z,8.30
2019-05-11T04:16:09.427Z,8.20
2019-05-11T04:18:54.462Z,8.20
2019-05-11T04:21:39.237Z,8.20
2019-05-11T04:24:24.291Z,8.20
2019-05-11T04:27:09.418Z,8.30
2019-05-11T04:29:55.095Z,8.40
2019-05-11T04:32:40.775Z,8.60
2019-05-11T04:35:26.012Z,8.60
2019-05-11T04:38:11.109Z,8.60
2019-05-11T04:40:55.947Z,8.70
2019-05-11T04:43:41.009Z,8.80
2019-05-11T04:46:26.732Z,8.80
2019-05-11T04:49:11.691Z,8.70
2019-05-11T04:51:57.142Z,8.70
2019-05-11T04:54:42.478Z,8.60
2019-05-11T04:57:27.590Z,8.60
2019-05-11T05:00:12.677Z,8.50
2019-05-11T05:02:57.861Z,8.60
2019-05-11T05:05:43.282Z,8.60
2019-05-11T05:08:28.314Z,8.60
2019-05-11T05:11:13.401Z,8.60
2019-05-11T05:14:02.095Z,8.70
2019-05-11T05:16:46.155Z,8.70
2019-05-11T05:19:31.478Z,8.80
2019-05-11T05:22:16.753Z,8.90
2019-05-11T05:25:02.214Z,9.10
2019-05-11T05:27:47.346Z,9.20
2019-05-11T05:30:32.358Z,9.40
2019-05-11T05:33:17.722Z,9.60
2019-05-11T05:36:02.783Z,9.50
2019-05-11T05:38:51.428Z,9.40
2019-05-11T05:41:36.830Z,9.50
2019-05-11T05:44:21.998Z,9.40
2019-05-11T05:47:06.874Z,9.60
2019-05-11T05:49:52.066Z,9.70
2019-05-11T05:52:37.108Z,9.90
2019-05-11T05:55:23.446Z,9.80
2019-05-11T05:58:08.513Z,9.60
2019-05-11T06:00:53.801Z,9.60
2019-05-11T06:03:38.720Z,9.50
2019-05-11T06:06:23.652Z,9.50
2019-05-11T06:09:09.685Z,9.60
2019-05-11T06:11:54.774Z,9.60
2019-05-11T06:14:39.925Z,9.60
2019-05-11T06:17:24.981Z,9.60
2019-05-11T06:20:10.256Z,9.60
2019-05-11T06:22:55.522Z,9.60
2019-05-11T06:25:41.610Z,9.60
2019-05-11T06:28:27.074Z,9.50
2019-05-11T06:31:12.558Z,9.40
2019-05-11T06:33:57.757Z,9.40
2019-05-11T06:36:43.370Z,9.40
2019-05-11T06:39:28.620Z,9.50
2019-05-11T06:42:13.665Z,9.60
2019-05-11T06:44:59.209Z,9.60
2019-05-11T06:47:44.745Z,9.80
2019-05-11T06:50:30.469Z,10.00
2019-05-11T06:53:15.735Z,10.20
2019-05-11T06:56:00.914Z,10.50
2019-05-11T06:58:46.167Z,10.70
2019-05-11T07:01:31.787Z,10.90
2019-05-11T07:04:17.223Z,11.30
2019-05-11T07:07:02.382Z,11.50
2019-05-11T07:09:47.962Z,11.70
2019-05-11T07:12:33.537Z,11.70
2019-05-11T07:15:19.629Z,11.60
2019-05-11T07:18:04.615Z,11.70
2019-05-11T07:20:51.042Z,11.60
2019-05-11T07:23:36.427Z,11.80
2019-05-11T07:26:22.219Z,12.00
2019-05-11T07:29:07.509Z,11.90
2019-05-11T07:31:52.714Z,12.00
2019-05-11T07:34:38.410Z,12.10
2019-05-11T07:37:24.375Z,12.00
2019-05-11T07:40:10.449Z,11.90
2019-05-11T07:42:55.877Z,11.90
2019-05-11T07:45:41.267Z,11.70
2019-05-11T07:48:27.899Z,11.60
2019-05-11T07:51:13.234Z,11.50
2019-05-11T07:53:58.826Z,11.50
2019-05-11T07:56:43.762Z,11.40
2019-05-11T07:59:29.143Z,11.40
2019-05-11T08:02:14.926Z,11.70
2019-05-11T08:05:00.132Z,11.70
2019-05-11T08:07:48.165Z,11.70
2019-05-11T08:10:33.494Z,11.60
2019-05-11T08:13:19.181Z,11.60
2019-05-11T08:16:04.754Z,11.70
2019-05-11T08:18:50.330Z,12.00
2019-05-11T08:21:35.918Z,12.00
2019-05-11T08:24:21.006Z,12.10
2019-05-11T08:27:08.407Z,12.10
2019-05-11T08:29:53.527Z,12.10
2019-05-11T08:32:39.229Z,12.00
2019-05-11T08:35:27.760Z,11.80
2019-05-11T08:38:11.709Z,11.70
2019-05-11T08:40:59.016Z,11.50
2019-05-11T08:43:44.706Z,11.40
2019-05-11T08:46:29.914Z,11.20
2019-05-11T08:49:18.779Z,10.90
2019-05-11T08:52:03.152Z,10.60
2019-05-11T08:54:48.779Z,10.70
2019-05-11T08:57:34.006Z,10.80
2019-05-11T09:00:18.978Z,10.70
2019-05-11T09:03:04.117Z,10.60
2019-05-11T09:05:49.726Z,10.50
2019-05-11T09:08:35.008Z,10.50
2019-05-11T09:11:19.853Z,10.60
2019-05-11T09:14:04.935Z,10.60
2019-05-11T09:16:49.906Z,10.70
2019-05-11T09:19:35.061Z,10.60
2019-05-11T09:22:20.269Z,10.70
2019-05-11T09:25:06.096Z,10.60
2019-05-11T09:27:53.084Z,10.60
2019-05-11T09:30:38.717Z,10.50
2019-05-11T09:33:24.365Z,10.60
2019-05-11T09:36:09.667Z,10.70
2019-05-11T09:38:54.895Z,10.60
2019-05-11T09:41:40.434Z,10.60
2019-05-11T09:44:25.903Z,10.70
2019-05-11T09:47:10.618Z,10.60
2019-05-11T09:49:58.049Z,10.60
2019-05-11T09:52:43.321Z,10.60
2019-05-11T09:55:28.764Z,10.50
2019-05-11T09:58:14.154Z,10.50
2019-05-11T10:00:58.845Z,10.50
2019-05-11T10:03:44.057Z,10.40
2019-05-11T10:06:29.778Z,10.30
2019-05-11T10:09:14.717Z,10.30
2019-05-11T10:11:59.962Z,10.40
2019-05-11T10:14:44.961Z,10.30
2019-05-11T10:17:30.268Z,10.30
2019-05-11T10:20:17.535Z,10.20
2019-05-11T10:23:02.582Z,10.30
2019-05-11T10:25:48.668Z,10.30
2019-05-11T10:28:33.614Z,10.20
2019-05-11T10:31:18.468Z,10.20
2019-05-11T10:34:03.349Z,10.10
2019-05-11T10:36:48.783Z,10.10
2019-05-11T10:39:33.901Z,10.20
2019-05-11T10:42:19.201Z,10.00
2019-05-11T10:45:04.290Z,10.00
2019-05-11T10:47:49.345Z,9.90
2019-05-11T10:50:34.878Z,9.80
2019-05-11T10:53:20.006Z,9.80
2019-05-11T10:56:04.909Z,10.00
2019-05-11T10:58:50.390Z,10.30
2019-05-11T11:01:37.835Z,10.70
2019-05-11T11:04:22.788Z,11.00
2019-05-11T11:07:08.006Z,11.30
2019-05-11T11:09:53.357Z,11.30
2019-05-11T11:12:39.066Z,11.40
2019-05-11T11:15:24.049Z,11.60
2019-05-11T11:18:09.049Z,11.80
2019-05-11T11:20:54.761Z,11.70
2019-05-11T11:23:40.081Z,11.80
2019-05-11T11:26:28.362Z,11.80
2019-05-11T11:29:12.909Z,11.60
2019-05-11T11:31:58.756Z,11.20
2019-05-11T11:34:43.717Z,11.00
2019-05-11T11:37:28.486Z,10.70
2019-05-11T11:40:13.995Z,10.50
2019-05-11T11:42:59.150Z,10.30
2019-05-11T11:45:44.406Z,10.20
2019-05-11T11:48:29.598Z,10.10
2019-05-11T11:51:14.865Z,10.20
2019-05-11T11:53:59.761Z,10.30
2019-05-11T11:56:45.114Z,10.40
2019-05-11T11:59:30.777Z,10.40
2019-05-11T12:02:18.858Z,10.40
2019-05-11T12:05:03.699Z,10.40
2019-05-11T12:07:49.262Z,10.40
2019-05-11T12:10:34.562Z,10.40
2019-05-11T12:13:20.212Z,10.30
2019-05-11T12:16:07.550Z,10.30
2019-05-11T12:18:53.085Z,10.40
2019-05-11T12:21:38.758Z,10.70
2019-05-11T12:24:24.446Z,10.80
2019-05-11T12:27:09.361Z,10.90
2019-05-11T12:29:54.366Z,11.10
2019-05-11T12:32:43.705Z,11.00
2019-05-11T12:35:28.643Z,10.90
2019-05-11T12:38:14.466Z,10.70
2019-05-11T12:40:59.702Z,10.50
2019-05-11T12:43:44.394Z,10.30
2019-05-11T12:46:29.254Z,10.10
2019-05-11T12:49:14.508Z,10.00
2019-05-11T12:52:02.289Z,10.00
2019-05-11T12:54:48.509Z,10.00
2019-05-11T12:57:35.447Z,10.00
2019-05-11T13:00:21.356Z,9.90
2019-05-11T13:03:08.570Z,9.80
2019-05-11T13:05:54.452Z,9.80
2019-05-11T13:08:41.357Z,9.80
2019-05-11T13:11:28.620Z,9.80
2019-05-11T13:14:14.249Z,9.80
2019-05-11T13:17:00.439Z,9.80
2019-05-11T13:19:47.957Z,9.80
2019-05-11T13:22:34.149Z,9.70
2019-05-11T13:25:20.647Z,9.80
2019-05-11T13:28:08.392Z,9.80
2019-05-11T13:30:54.663Z,9.90
2019-05-11T13:33:40.967Z,9.80
2019-05-11T13:36:28.512Z,9.70
2019-05-11T13:39:13.381Z,9.70
2019-05-11T13:41:59.088Z,9.60
2019-05-11T13:44:44.666Z,9.60
2019-05-11T13:47:29.622Z,9.60
2019-05-11T13:50:14.794Z,9.70
2019-05-11T13:53:00.062Z,9.70
2019-05-11T13:55:45.286Z,9.70
2019-05-11T13:58:30.597Z,9.70
2019-05-11T14:01:15.665Z,9.70
2019-05-11T14:04:01.344Z,9.70
2019-05-11T14:06:48.141Z,9.80
2019-05-11T14:09:33.391Z,9.70
2019-05-11T14:12:18.527Z,9.60
2019-05-11T14:15:04.186Z,9.60
2019-05-11T14:18:04.446Z,9.60
2019-05-11T14:20:37.871Z,9.50
2019-05-11T14:23:23.446Z,9.50
2019-05-11T14:26:08.963Z,9.40
2019-05-11T14:28:54.233Z,9.30
2019-05-11T14:31:39.966Z,9.30
2019-05-11T14:34:25.233Z,9.30
2019-05-11T14:37:10.778Z,9.20
2019-05-11T14:39:58.234Z,9.10
2019-05-11T14:42:44.677Z,9.10
2019-05-11T14:45:29.986Z,9.10
2019-05-11T14:48:24.060Z,9.10
2019-05-11T14:51:02.678Z,9.20
2019-05-11T14:53:48.213Z,9.20
2019-05-11T14:56:33.725Z,9.10
2019-05-11T14:59:19.190Z,9.00
2019-05-11T15:02:24.431Z,9.00
2019-05-11T15:05:09.410Z,9.00
2019-05-11T15:07:55.070Z,9.00
2019-05-11T15:10:40.954Z,9.00
2019-05-11T15:13:25.865Z,8.90
2019-05-11T15:16:10.941Z,9.00
2019-05-11T15:18:58.453Z,9.10
2019-05-11T15:21:43.169Z,9.20
2019-05-11T15:24:28.899Z,9.10
2019-05-11T15:27:13.801Z,9.10
2019-05-11T15:29:58.857Z,9.10
2019-05-11T15:32:44.433Z,9.00
2019-05-11T15:35:29.873Z,9.10
2019-05-11T15:38:15.120Z,9.00
2019-05-11T15:40:59.990Z,9.00
2019-05-11T15:43:47.738Z,9.00
2019-05-11T15:46:32.082Z,8.90
2019-05-11T15:49:18.103Z,8.90
2019-05-11T15:52:03.106Z,8.90
2019-05-11T15:54:48.229Z,8.90
2019-05-11T15:57:33.594Z,9.00
2019-05-11T16:00:18.967Z,8.90
2019-05-11T16:03:04.234Z,9.00
2019-05-11T16:05:51.398Z,9.00
2019-05-11T16:08:37.672Z,9.00
2019-05-11T16:11:23.322Z,8.90
2019-05-11T16:14:09.111Z,8.90
2019-05-11T16:16:54.878Z,8.70
2019-05-11T16:19:41.108Z,8.60
2019-05-11T16:22:27.981Z,8.60
2019-05-11T16:25:13.551Z,8.60
2019-05-11T16:27:59.024Z,8.60
2019-05-11T16:30:44.602Z,8.50
2019-05-11T16:33:29.897Z,8.40
2019-05-11T16:36:14.870Z,8.40
2019-05-11T16:38:59.895Z,8.40
2019-05-11T16:41:44.973Z,8.40
2019-05-11T16:44:30.042Z,8.30
2019-05-11T16:47:15.474Z,8.20
2019-05-11T16:50:00.809Z,8.20
2019-05-11T16:52:48.131Z,8.10
2019-05-11T16:55:33.150Z,8.00
2019-05-11T16:58:19.814Z,7.90
2019-05-11T17:01:05.130Z,7.80
2019-05-11T17:03:50.589Z,7.70
2019-05-11T17:06:38.322Z,7.80
2019-05-11T17:09:23.278Z,7.70
2019-05-11T17:12:08.773Z,7.70
2019-05-11T17:14:58.475Z,7.70
2019-05-11T17:17:43.730Z,7.70
2019-05-11T17:20:28.918Z,7.70
2019-05-11T17:23:14.737Z,7.70
2019-05-11T17:26:00.523Z,7.70
2019-05-11T17:28:45.482Z,7.70
2019-05-11T17:31:31.369Z,7.70
2019-05-11T17:34:20.497Z,7.70
2019-05-11T17:37:03.759Z,7.60
2019-05-11T17:39:49.321Z,7.50
2019-05-11T17:42:34.238Z,7.50
2019-05-11T17:45:19.897Z,7.50
2019-05-11T17:48:05.218Z,7.50
2019-05-11T17:50:50.418Z,7.50
2019-05-11T17:53:37.654Z,7.40
2019-05-11T17:56:22.998Z,7.40
2019-05-11T17:59:08.318Z,7.40
2019-05-11T18:01:53.517Z,7.40
2019-05-11T18:04:38.819Z,7.40
2019-05-11T18:07:27.659Z,7.40
2019-05-11T18:10:11.682Z,7.40
2019-05-11T18:12:57.819Z,7.40
2019-05-11T18:15:42.801Z,7.40
2019-05-11T18:18:29.075Z,7.40
2019-05-11T18:21:14.486Z,7.40
2019-05-11T18:23:59.357Z,7.40
2019-05-11T18:26:45.018Z,7.40
2019-05-11T18:29:30.108Z,7.40
2019-05-11T18:32:15.574Z,7.40
2019-05-11T18:35:01.048Z,7.40
2019-05-11T18:37:47.743Z,7.40
2019-05-11T18:40:33.322Z,7.50
2019-05-11T18:43:18.860Z,7.50
2019-05-11T18:46:04.493Z,7.50
2019-05-11T18:48:49.381Z,7.50
2019-05-11T18:51:34.657Z,7.50
2019-05-11T18:54:19.942Z,7.50
2019-05-11T18:57:05.033Z,7.50
2019-05-11T18:59:50.515Z,7.50
2019-05-11T19:02:38.484Z,7.50
2019-05-11T19:05:23.306Z,7.50
2019-05-11T19:08:08.700Z,7.40
2019-05-11T19:10:54.086Z,7.40
2019-05-11T19:13:39.068Z,7.40
2019-05-11T19:16:24.377Z,7.30
2019-05-11T19:19:09.942Z,7.30
2019-05-11T19:21:55.006Z,7.30
2019-05-11T19:24:40.386Z,7.30
2019-05-11T19:27:25.757Z,7.30
2019-05-11T19:30:10.886Z,7.30
2019-05-11T19:32:56.093Z,7.30
2019-05-11T19:35:41.470Z,7.30
2019-05-11T19:38:28.021Z,7.30
2019-05-11T19:41:13.846Z,7.30
2019-05-11T19:43:59.214Z,7.20
2019-05-11T19:46:44.512Z,7.20
2019-05-11T19:49:30.166Z,7.20
2019-05-11T19:52:17.397Z,7.20
2019-05-11T19:55:03.362Z,7.20
2019-05-11T19:57:48.472Z,7.20
2019-05-11T20:00:33.700Z,7.10
2019-05-11T20:03:19.021Z,7.20
2019-05-11T20:06:04.018Z,7.20
2019-05-11T20:08:49.193Z,7.20
2019-05-11T20:11:34.083Z,7.20
2019-05-11T20:14:19.378Z,7.10
2019-05-11T20:17:05.003Z,7.10
2019-05-11T20:19:50.153Z,7.10
2019-05-11T20:22:35.538Z,7.00
2019-05-11T20:25:20.821Z,7.00
2019-05-11T20:28:06.183Z,7.00
2019-05-11T20:30:51.226Z,6.90
2019-05-11T20:33:38.474Z,6.90
2019-05-11T20:36:23.726Z,6.90
2019-05-11T20:39:08.840Z,6.90
2019-05-11T20:41:53.786Z,6.90
2019-05-11T20:44:39.122Z,6.90
2019-05-11T20:47:24.390Z,6.90
2019-05-11T20:50:09.333Z,6.90
2019-05-11T20:52:54.109Z,6.90
2019-05-11T20:55:39.440Z,6.90
2019-05-11T20:58:24.742Z,6.90
2019-05-11T21:01:10.738Z,6.90
2019-05-11T21:03:58.447Z,6.90
2019-05-11T21:06:47.214Z,6.90
2019-05-11T21:09:31.565Z,6.90
2019-05-11T21:12:18.451Z,6.90
2019-05-11T21:15:04.601Z,6.90
2019-05-11T21:17:50.783Z,6.90
2019-05-11T21:20:38.084Z,6.90
2019-05-11T21:23:23.911Z,6.90
2019-05-11T21:26:10.018Z,6.80
2019-05-11T21:28:57.787Z,6.80
2019-05-11T21:31:43.085Z,6.80
2019-05-11T21:34:28.498Z,6.70
2019-05-11T21:37:13.798Z,6.70
2019-05-11T21:39:59.441Z,6.70
2019-05-11T21:42:44.783Z,6.70
2019-05-11T21:45:30.273Z,6.70
2019-05-11T21:48:15.863Z,6.60
2019-05-11T21:51:00.858Z,6.60
2019-05-11T21:53:45.829Z,6.60
2019-05-11T21:56:30.761Z,6.60
2019-05-11T21:59:18.260Z,6.60
2019-05-11T22:02:03.537Z,6.60
2019-05-11T22:04:49.222Z,6.60
2019-05-11T22:07:35.083Z,6.60
2019-05-11T22:10:20.266Z,6.50
2019-05-11T22:13:05.318Z,6.50
2019-05-11T22:15:50.572Z,6.50
2019-05-11T22:18:37.899Z,6.50
2019-05-11T22:21:23.594Z,6.60
2019-05-11T22:24:08.795Z,6.50
2019-05-11T22:26:54.537Z,6.50
2019-05-11T22:29:39.810Z,6.50
2019-05-11T22:32:25.106Z,6.50
2019-05-11T22:35:10.098Z,6.50
2019-05-11T22:37:54.939Z,6.40
2019-05-11T22:40:40.170Z,6.50
2019-05-11T22:43:25.374Z,6.50
2019-05-11T22:46:10.234Z,6.50
2019-05-11T22:48:58.113Z,6.50
2019-05-11T22:51:42.521Z,6.50
2019-05-11T22:54:28.922Z,6.60
2019-05-11T22:57:14.106Z,6.50
2019-05-11T23:00:01.691Z,6.50
2019-05-11T23:02:48.457Z,6.60
2019-05-11T23:05:33.730Z,6.60
2019-05-11T23:08:18.986Z,6.60
2019-05-11T23:11:04.120Z,6.60
2019-05-11T23:13:48.905Z,6.60
2019-05-11T23:16:34.293Z,6.60
2019-05-11T23:19:19.326Z,6.60
2019-05-11T23:22:05.511Z,6.70
2019-05-11T23:24:51.838Z,6.70
2019-05-11T23:27:39.129Z,6.60
2019-05-11T23:30:24.235Z,6.60
2019-05-11T23:33:09.128Z,6.60
2019-05-11T23:35:54.422Z,6.60
2019-05-11T23:38:40.028Z,6.60
2019-05-11T23:41:25.190Z,6.60
2019-05-11T23:44:10.974Z,6.60
2019-05-11T23:46:56.283Z,6.60
2019-05-11T23:49:41.030Z,6.60
2019-05-11T23:52:26.165Z,6.60
2019-05-11T23:55:11.669Z,6.70
2019-05-11T23:57:57.642Z,6.70
